Time;durP1;ratioP1;P1;durP2;ratioP2;P2;SDS_P1;SDS_P2;PMS_P1;PMS_P2;Temp;Humidity;BMP_temperature;BMP_pressure;BME280_temperature;BME280_humidity;BME280_pressure;Samples;Min_cycle;Max_cycle;Signal;HPM_P1;HPM_P2
2021/03/13 00:02:24;;;;;;;6.70;2.10;;;6.60;99.90;;;;;;10448509;28;20130;-74
2021/03/13 00:07:25;;;;;;;5.15;2.15;;;6.60;99.90;;;;;;10449690;28;20075;-73
2021/03/13 00:12:27;;;;;;;5.22;1.95;;;6.60;99.90;;;;;;10449092;28;20562;-74
2021/03/13 00:17:28;;;;;;;6.63;2.05;;;6.60;99.90;;;;;;10448721;28;20052;-74
2021/03/13 00:22:30;;;;;;;5.05;2.00;;;6.70;99.90;;;;;;10448746;28;20537;-74
2021/03/13 00:27:31;;;;;;;8.35;2.08;;;6.70;99.90;;;;;;10448683;28;20148;-74
2021/03/13 00:32:50;;;;;;;7.25;2.20;;;6.70;99.90;;;;;;10447525;28;20103;-74
2021/03/13 00:37:53;;;;;;;6.78;2.00;;;6.70;99.90;;;;;;10446890;28;20049;-73
2021/03/13 00:42:55;;;;;;;7.63;2.40;;;6.80;99.90;;;;;;10447851;28;20118;-74
2021/03/13 00:47:57;;;;;;;7.43;2.60;;;6.90;99.90;;;;;;10447981;28;20088;-74
2021/03/13 00:52:59;;;;;;;5.55;1.85;;;7.00;99.90;;;;;;10447959;28;20409;-74
2021/03/13 00:58:02;;;;;;;5.82;2.00;;;7.10;99.90;;;;;;10447516;28;20048;-74
2021/03/13 01:03:09;;;;;;;4.43;2.08;;;7.10;99.90;;;;;;10445598;28;20074;-73
2021/03/13 01:08:11;;;;;;;6.80;2.75;;;7.00;99.90;;;;;;10446622;28;20052;-73
2021/03/13 01:13:22;;;;;;;4.13;1.90;;;7.00;99.90;;;;;;10447041;28;20076;-74
2021/03/13 01:18:24;;;;;;;8.35;3.10;;;7.00;99.90;;;;;;10446916;28;20088;-73
2021/03/13 01:23:25;;;;;;;4.20;1.67;;;7.00;99.90;;;;;;10445976;28;20068;-74
2021/03/13 01:28:27;;;;;;;4.47;1.55;;;7.00;99.90;;;;;;10445866;28;20564;-73
2021/03/13 01:33:34;;;;;;;3.70;1.40;;;6.90;99.90;;;;;;10446239;28;20049;-74
2021/03/13 01:38:35;;;;;;;6.18;2.00;;;6.90;99.90;;;;;;10446167;28;20435;-74
2021/03/13 01:43:38;;;;;;;7.05;2.40;;;7.00;99.90;;;;;;10445470;28;20135;-73
2021/03/13 01:48:48;;;;;;;6.25;1.67;;;7.00;99.90;;;;;;10445451;28;20417;-74
2021/03/13 01:53:50;;;;;;;7.57;2.15;;;7.20;99.90;;;;;;10445750;28;20056;-74
2021/03/13 01:58:51;;;;;;;7.20;2.10;;;7.20;99.90;;;;;;10445152;28;20385;-73
2021/03/13 02:03:55;;;;;;;5.40;1.70;;;7.20;99.90;;;;;;10445410;28;20077;-74
2021/03/13 02:09:07;;;;;;;9.40;3.03;;;7.10;99.90;;;;;;10444919;28;20077;-74
2021/03/13 02:14:11;;;;;;;6.82;2.95;;;7.10;99.90;;;;;;10443039;28;20168;-74
2021/03/13 02:19:34;;;;;;;10.45;3.60;;;7.00;99.90;;;;;;10444892;28;20048;-74
2021/03/13 02:25:04;;;;;;;16.67;6.72;;;7.10;99.90;;;;;;10402461;28;20168;-74
2021/03/13 02:30:21;;;;;;;16.20;6.53;;;7.20;99.90;;;;;;10403058;28;20132;-74
2021/03/13 02:35:34;;;;;;;7.28;3.05;;;7.20;99.90;;;;;;10444958;28;20481;-74
2021/03/13 02:40:38;;;;;;;9.90;3.35;;;7.10;99.90;;;;;;10444601;28;20135;-74
2021/03/13 02:45:48;;;;;;;7.70;2.55;;;7.10;99.90;;;;;;10444439;28;20065;-74
2021/03/13 02:50:50;;;;;;;9.13;3.92;;;7.10;99.90;;;;;;10444984;28;20077;-74
2021/03/13 02:55:53;;;;;;;11.07;4.70;;;7.20;99.90;;;;;;10443761;28;20140;-74
2021/03/13 03:00:56;;;;;;;9.43;3.83;;;7.20;99.90;;;;;;10444198;28;20171;-74
2021/03/13 03:05:59;;;;;;;9.13;3.58;;;7.20;99.90;;;;;;10452052;28;20052;-74
2021/03/13 03:11:00;;;;;;;8.32;2.85;;;7.20;99.90;;;;;;10450452;28;20124;-74
2021/03/13 03:16:04;;;;;;;8.15;2.90;;;7.20;99.90;;;;;;10451180;28;20131;-74
2021/03/13 03:21:08;;;;;;;10.40;4.32;;;7.10;99.90;;;;;;10450352;28;20076;-74
2021/03/13 03:26:09;;;;;;;9.95;3.03;;;7.10;99.90;;;;;;10451384;28;20089;-74
2021/03/13 03:31:12;;;;;;;5.10;1.90;;;7.10;99.90;;;;;;10450502;28;20496;-74
2021/03/13 03:36:14;;;;;;;11.25;3.35;;;7.00;99.90;;;;;;10459020;28;20045;-74
2021/03/13 03:41:16;;;;;;;6.38;2.33;;;6.90;99.90;;;;;;10458908;28;20132;-74
2021/03/13 03:46:18;;;;;;;5.07;1.90;;;6.90;99.90;;;;;;10457311;28;20138;-74
2021/03/13 03:51:24;;;;;;;7.80;3.22;;;7.00;99.90;;;;;;10457689;28;20045;-74
2021/03/13 03:56:27;;;;;;;5.75;2.20;;;7.00;99.90;;;;;;10458622;28;20076;-74
2021/03/13 04:01:30;;;;;;;4.35;2.00;;;7.00;99.90;;;;;;10457558;28;20080;-74
2021/03/13 04:06:33;;;;;;;2.38;1.20;;;7.00;99.90;;;;;;10452230;28;20123;-74
2021/03/13 04:11:37;;;;;;;1.45;0.80;;;6.90;99.90;;;;;;10450763;28;20272;-73
2021/03/13 04:16:39;;;;;;;5.05;2.13;;;6.90;99.90;;;;;;10450179;28;20570;-73
2021/03/13 04:21:41;;;;;;;4.13;1.85;;;6.80;99.90;;;;;;10450552;28;20139;-74
2021/03/13 04:26:44;;;;;;;2.40;1.30;;;6.90;99.90;;;;;;10449984;28;20049;-74
2021/03/13 04:31:47;;;;;;;2.22;0.90;;;6.90;99.90;;;;;;10449157;28;20052;-74
2021/03/13 04:36:49;;;;;;;1.33;1.00;;;7.00;99.90;;;;;;10450476;28;20088;-74
2021/03/13 04:41:52;;;;;;;3.92;1.52;;;7.00;99.90;;;;;;10448800;28;20088;-74
2021/03/13 04:46:54;;;;;;;2.95;1.35;;;7.00;99.90;;;;;;10448635;28;20128;-74
2021/03/13 04:51:59;;;;;;;2.67;1.40;;;7.00;99.90;;;;;;10448697;28;20045;-74
2021/03/13 04:57:01;;;;;;;2.60;1.20;;;7.10;99.90;;;;;;10449606;28;20130;-74
2021/03/13 05:02:04;;;;;;;4.22;1.63;;;7.10;99.90;;;;;;10447834;28;20128;-73
2021/03/13 05:07:06;;;;;;;5.57;1.85;;;7.20;99.90;;;;;;10448405;28;20055;-73
2021/03/13 05:12:08;;;;;;;8.57;3.35;;;7.20;99.90;;;;;;10448455;28;20131;-73
2021/03/13 05:17:10;;;;;;;3.92;1.60;;;7.20;99.90;;;;;;10448261;28;20080;-73
2021/03/13 05:22:11;;;;;;;9.80;4.10;;;7.20;99.90;;;;;;10447354;28;20053;-74
2021/03/13 05:27:13;;;;;;;19.02;6.72;;;7.20;99.90;;;;;;10447112;28;20053;-73
2021/03/13 05:32:16;;;;;;;9.80;3.70;;;7.20;99.90;;;;;;10445908;28;20512;-74
2021/03/13 05:37:18;;;;;;;8.65;3.30;;;7.20;99.90;;;;;;10447764;28;20049;-74
2021/03/13 05:42:23;;;;;;;12.63;3.90;;;7.30;99.90;;;;;;10445542;28;20384;-74
2021/03/13 05:47:26;;;;;;;12.02;3.83;;;7.30;99.90;;;;;;10446411;28;20056;-74
2021/03/13 05:52:32;;;;;;;9.55;3.10;;;7.40;99.90;;;;;;10446976;28;20049;-74
2021/03/13 05:57:34;;;;;;;11.70;4.57;;;7.40;99.90;;;;;;10446511;28;20132;-74
2021/03/13 06:02:39;;;;;;;7.90;2.42;;;7.50;99.90;;;;;;10445917;28;20088;-73
2021/03/13 06:07:44;;;;;;;4.97;1.58;;;7.60;99.90;;;;;;10446090;28;20347;-74
2021/03/13 06:12:45;;;;;;;9.00;1.83;;;7.70;99.90;;;;;;10445664;28;20104;-74
2021/03/13 06:17:57;;;;;;;8.10;1.60;;;7.70;99.90;;;;;;10445285;28;20128;-74
2021/03/13 06:23:16;;;;;;;4.28;1.50;;;7.70;99.90;;;;;;10445834;28;20482;-73
2021/03/13 06:28:19;;;;;;;5.35;1.80;;;7.80;99.90;;;;;;10445040;28;20064;-74
2021/03/13 06:33:26;;;;;;;5.97;2.10;;;7.80;99.90;;;;;;10445558;28;20053;-74
2021/03/13 06:38:29;;;;;;;5.28;1.90;;;7.90;99.90;;;;;;10444416;28;20378;-74
2021/03/13 06:43:31;;;;;;;4.07;1.83;;;8.00;99.90;;;;;;10444489;28;20533;-74
2021/03/13 06:48:36;;;;;;;6.65;2.03;;;8.00;99.90;;;;;;10443755;28;20053;-74
2021/03/13 06:53:38;;;;;;;5.72;1.75;;;8.10;99.90;;;;;;10444752;28;20051;-74
2021/03/13 06:58:40;;;;;;;5.70;1.92;;;8.10;99.90;;;;;;10444839;28;20166;-74
2021/03/13 07:03:51;;;;;;;3.45;1.67;;;8.20;99.90;;;;;;10443250;28;20138;-74
2021/03/13 07:08:54;;;;;;;4.67;1.73;;;8.30;99.90;;;;;;10450822;28;20060;-74
2021/03/13 07:13:56;;;;;;;4.00;1.60;;;8.30;99.90;;;;;;10452770;28;20056;-74
2021/03/13 07:19:02;;;;;;;4.05;1.60;;;8.20;99.90;;;;;;10452307;28;20067;-74
2021/03/13 07:24:07;;;;;;;4.55;1.45;;;8.10;99.90;;;;;;10451286;28;20132;-74
2021/03/13 07:29:14;;;;;;;2.95;1.48;;;8.10;99.90;;;;;;10451521;28;20503;-74
2021/03/13 07:34:20;;;;;;;2.88;1.20;;;8.30;99.90;;;;;;10451767;28;20485;-74
2021/03/13 07:39:26;;;;;;;2.47;1.50;;;8.30;99.90;;;;;;10451995;28;20094;-74
2021/03/13 07:44:29;;;;;;;3.75;1.77;;;8.20;99.90;;;;;;10451337;28;20552;-73
2021/03/13 07:49:32;;;;;;;3.42;1.70;;;8.20;99.90;;;;;;10449919;28;20462;-74
2021/03/13 07:54:43;;;;;;;8.48;4.57;;;8.20;99.90;;;;;;10348591;28;20059;-74
2021/03/13 07:59:54;;;;;;;7.53;4.35;;;8.20;99.90;;;;;;10288616;28;20138;-75
2021/03/13 08:05:01;;;;;;;23.02;15.85;;;8.40;99.90;;;;;;10326494;28;20097;-74
2021/03/13 08:10:03;;;;;;;5.07;3.50;;;8.40;99.90;;;;;;10324576;28;20046;-75
2021/03/13 08:15:12;;;;;;;2.95;1.35;;;8.60;99.90;;;;;;10325188;28;20125;-74
2021/03/13 08:20:14;;;;;;;1.63;1.20;;;8.60;99.90;;;;;;10325305;28;20112;-74
2021/03/13 08:25:27;;;;;;;2.42;1.25;;;8.50;99.90;;;;;;10325545;28;20141;-67
2021/03/13 08:30:29;;;;;;;2.78;1.20;;;8.50;99.90;;;;;;10325751;28;20038;-67
2021/03/13 08:35:37;;;;;;;2.95;1.08;;;8.50;99.90;;;;;;10324183;28;20061;-67
2021/03/13 08:40:44;;;;;;;1.85;1.33;;;8.60;99.90;;;;;;10323873;28;20579;-67
2021/03/13 08:45:45;;;;;;;2.95;1.35;;;8.60;99.90;;;;;;10341204;28;20046;-67
2021/03/13 08:50:47;;;;;;;2.05;1.10;;;8.80;99.90;;;;;;10318698;28;20046;-67
2021/03/13 08:55:48;;;;;;;6.35;1.40;;;8.90;99.90;;;;;;10299575;28;20137;-67
2021/03/13 09:00:50;;;;;;;5.28;2.45;;;9.20;99.90;;;;;;10310299;28;20564;-67
2021/03/13 09:05:53;;;;;;;6.53;2.03;;;9.50;99.90;;;;;;10323645;28;20517;-67
2021/03/13 09:10:54;;;;;;;3.75;1.30;;;9.60;99.90;;;;;;10324546;28;20070;-67
2021/03/13 09:15:56;;;;;;;4.57;1.65;;;9.40;99.90;;;;;;10323541;28;20374;-67
2021/03/13 09:20:57;;;;;;;3.25;1.48;;;9.50;99.90;;;;;;10323294;28;20450;-67
2021/03/13 09:26:05;;;;;;;3.08;1.80;;;9.20;99.90;;;;;;10322965;28;20581;-67
2021/03/13 09:31:12;;;;;;;2.90;1.60;;;9.20;99.90;;;;;;10320499;28;20413;-67
2021/03/13 09:36:14;;;;;;;3.30;1.48;;;9.00;99.90;;;;;;10322973;28;20674;-67
2021/03/13 09:41:15;;;;;;;4.78;1.65;;;8.70;99.90;;;;;;10320769;28;20072;-67
2021/03/13 09:46:18;;;;;;;6.70;1.50;;;8.60;99.90;;;;;;10311747;28;20054;-67
2021/03/13 09:51:19;;;;;;;3.13;1.15;;;8.30;99.90;;;;;;10318625;28;20043;-66
2021/03/13 09:56:29;;;;;;;2.20;0.70;;;8.00;99.90;;;;;;10320802;28;20061;-67
2021/03/13 10:01:31;;;;;;;1.30;0.80;;;7.30;99.90;;;;;;10320501;28;20061;-67
2021/03/13 10:06:34;;;;;;;2.35;1.00;;;7.20;99.90;;;;;;10322466;28;20647;-67
2021/03/13 10:11:42;;;;;;;2.78;0.77;;;7.00;99.90;;;;;;10321147;28;20051;-67
2021/03/13 10:16:45;;;;;;;3.22;1.15;;;6.90;99.90;;;;;;10322818;28;20491;-67
2021/03/13 10:22:25;;;;;;;2.85;1.10;;;6.70;99.90;;;;;;10322273;28;20045;-67
2021/03/13 10:27:29;;;;;;;4.07;1.30;;;6.50;99.90;;;;;;10301308;28;20056;-67
2021/03/13 10:32:33;;;;;;;4.75;1.77;;;6.20;99.90;;;;;;10288942;28;20054;-67
2021/03/13 10:37:45;;;;;;;3.47;1.20;;;6.30;99.90;;;;;;10322189;28;20486;-67
2021/03/13 10:42:46;;;;;;;6.35;1.52;;;6.20;99.90;;;;;;10327161;28;20077;-67
2021/03/13 10:47:48;;;;;;;4.18;1.42;;;6.40;99.90;;;;;;10327787;28;20137;-67
2021/03/13 10:52:49;;;;;;;3.38;1.10;;;6.50;99.90;;;;;;10326982;28;20078;-67
2021/03/13 10:58:01;;;;;;;1.40;0.90;;;6.90;99.90;;;;;;10330189;28;20538;-66
2021/03/13 11:03:03;;;;;;;3.58;0.85;;;7.00;99.90;;;;;;10331089;28;20643;-67
2021/03/13 11:08:05;;;;;;;2.67;1.20;;;6.90;99.90;;;;;;10328888;28;20117;-66
2021/03/13 11:13:06;;;;;;;2.30;0.95;;;7.00;99.90;;;;;;10329006;28;20101;-67
2021/03/13 11:18:08;;;;;;;3.97;1.20;;;7.20;99.90;;;;;;10330412;28;20129;-67
2021/03/13 11:23:10;;;;;;;3.20;1.40;;;7.00;99.90;;;;;;10329486;28;20391;-67
2021/03/13 11:28:11;;;;;;;3.72;1.08;;;7.00;99.90;;;;;;10329341;28;20139;-66
2021/03/13 11:33:13;;;;;;;5.63;2.67;;;6.90;99.90;;;;;;10329820;28;20056;-67
2021/03/13 11:38:16;;;;;;;5.82;2.65;;;7.00;99.90;;;;;;10327362;28;20050;-67
2021/03/13 11:43:18;;;;;;;2.53;1.30;;;7.00;99.90;;;;;;10328360;28;20047;-67
2021/03/13 11:48:20;;;;;;;3.78;1.30;;;7.40;99.90;;;;;;10325358;28;20137;-67
2021/03/13 11:53:21;;;;;;;3.25;1.30;;;7.90;99.90;;;;;;10328574;28;20082;-67
2021/03/13 11:58:23;;;;;;;3.10;1.35;;;8.20;99.90;;;;;;10328665;28;20149;-67
2021/03/13 12:03:45;;;;;;;5.03;1.60;;;8.80;99.90;;;;;;10328694;28;20054;-67
2021/03/13 12:08:46;;;;;;;6.38;1.90;;;9.10;99.90;;;;;;10328536;28;20077;-67
2021/03/13 12:13:48;;;;;;;5.80;2.63;;;9.40;99.90;;;;;;10327886;28;20046;-67
2021/03/13 12:18:50;;;;;;;6.15;1.70;;;9.50;99.90;;;;;;10327620;28;20082;-67
2021/03/13 12:23:52;;;;;;;6.30;1.70;;;9.40;99.90;;;;;;10328077;28;20082;-66
2021/03/13 12:28:54;;;;;;;8.95;2.03;;;9.20;99.90;;;;;;10327283;28;20141;-67
2021/03/13 12:33:56;;;;;;;7.38;1.98;;;9.10;99.90;;;;;;10327223;28;20047;-67
2021/03/13 12:38:57;;;;;;;8.13;2.00;;;9.10;99.90;;;;;;10327230;28;20129;-67
2021/03/13 12:44:01;;;;;;;7.47;1.77;;;9.30;99.90;;;;;;10327088;28;20058;-67
2021/03/13 12:49:03;;;;;;;4.72;1.60;;;9.10;99.90;;;;;;10326710;28;20406;-67
2021/03/13 12:54:05;;;;;;;4.90;1.55;;;8.90;99.90;;;;;;10326946;28;20043;-67
2021/03/13 12:59:06;;;;;;;6.32;1.85;;;8.80;99.90;;;;;;10325865;28;20051;-67
2021/03/13 13:04:08;;;;;;;11.15;1.83;;;8.90;99.90;;;;;;10324966;28;20133;-67
2021/03/13 13:09:09;;;;;;;9.20;2.13;;;8.70;99.90;;;;;;10326487;28;20050;-67
2021/03/13 13:14:12;;;;;;;9.60;2.40;;;8.90;99.90;;;;;;10324991;28;20055;-66
2021/03/13 13:19:31;;;;;;;12.35;3.00;;;9.20;99.90;;;;;;10324806;28;20046;-67
2021/03/13 13:24:32;;;;;;;11.63;2.03;;;9.60;99.90;;;;;;10325073;28;20137;-67
2021/03/13 13:29:33;;;;;;;9.35;2.33;;;10.00;99.90;;;;;;10323721;28;20132;-67
2021/03/13 13:34:35;;;;;;;12.20;2.47;;;9.90;99.90;;;;;;10323874;28;20061;-67
2021/03/13 13:39:38;;;;;;;9.38;2.20;;;10.20;99.90;;;;;;10325057;28;20411;-67
2021/03/13 13:44:39;;;;;;;9.15;2.20;;;10.40;99.90;;;;;;10324092;28;20058;-67
2021/03/13 13:49:42;;;;;;;9.02;2.33;;;10.40;99.90;;;;;;10324567;28;20058;-67
2021/03/13 13:54:43;;;;;;;7.90;2.22;;;10.30;99.90;;;;;;10325068;28;20117;-67
2021/03/13 13:59:45;;;;;;;6.55;1.98;;;10.30;99.90;;;;;;10323008;28;20417;-67
2021/03/13 14:04:47;;;;;;;7.28;2.00;;;9.80;99.90;;;;;;10324333;28;20082;-67
2021/03/13 14:09:48;;;;;;;8.75;2.30;;;9.40;99.90;;;;;;10324516;28;20097;-67
2021/03/13 14:14:51;;;;;;;13.48;2.28;;;9.50;99.90;;;;;;10322839;28;20050;-67
2021/03/13 14:19:54;;;;;;;10.85;2.22;;;9.50;99.90;;;;;;10323891;28;20053;-67
2021/03/13 14:24:56;;;;;;;8.88;2.17;;;9.40;99.90;;;;;;10322185;28;20478;-67
2021/03/13 14:29:59;;;;;;;7.40;2.00;;;9.30;99.90;;;;;;10322940;28;20047;-67
2021/03/13 14:35:01;;;;;;;9.10;2.22;;;9.50;99.90;;;;;;10323872;28;20192;-67
2021/03/13 14:40:05;;;;;;;8.63;2.42;;;10.00;99.90;;;;;;10322345;28;20082;-66
2021/03/13 14:45:08;;;;;;;8.85;2.15;;;9.90;97.10;;;;;;10322646;28;20050;-67
2021/03/13 14:50:10;;;;;;;9.07;2.20;;;9.80;95.30;;;;;;10323783;28;20124;-67
2021/03/13 14:55:14;;;;;;;13.85;2.10;;;10.10;94.80;;;;;;10323474;28;20133;-67
2021/03/13 15:00:18;;;;;;;8.02;2.42;;;10.30;92.20;;;;;;10322440;28;20576;-67
2021/03/13 15:05:20;;;;;;;7.97;1.90;;;10.00;92.50;;;;;;10323390;28;20054;-67
2021/03/13 15:10:21;;;;;;;9.27;2.22;;;10.10;93.10;;;;;;10322599;28;20406;-67
2021/03/13 15:15:23;;;;;;;7.05;1.85;;;9.70;91.50;;;;;;10321503;28;20054;-67
2021/03/13 15:20:24;;;;;;;7.75;2.00;;;9.50;92.50;;;;;;10322826;28;20052;-67
2021/03/13 15:25:26;;;;;;;8.20;2.00;;;9.20;92.60;;;;;;10322946;28;20104;-67
2021/03/13 15:30:27;;;;;;;6.57;1.70;;;9.00;95.70;;;;;;10328276;28;20105;-67
2021/03/13 15:35:29;;;;;;;10.75;2.35;;;8.70;99.50;;;;;;10330088;28;20156;-67
2021/03/13 15:40:31;;;;;;;7.30;1.63;;;8.30;99.90;;;;;;10328078;28;20089;-67
2021/03/13 15:45:33;;;;;;;6.22;1.20;;;8.00;99.90;;;;;;10329433;28;20049;-67
2021/03/13 15:50:35;;;;;;;4.57;1.50;;;7.70;99.90;;;;;;10329537;28;20410;-67
2021/03/13 15:55:37;;;;;;;2.47;1.13;;;7.80;98.80;;;;;;10328976;28;20492;-67
2021/03/13 16:00:39;;;;;;;5.00;1.55;;;8.20;97.10;;;;;;10328316;28;20046;-66
2021/03/13 16:05:40;;;;;;;6.88;1.55;;;8.30;93.90;;;;;;10327710;28;20081;-67
2021/03/13 16:10:43;;;;;;;6.05;1.60;;;8.30;95.20;;;;;;10328611;28;20058;-67
2021/03/13 16:15:45;;;;;;;5.88;1.60;;;8.10;95.00;;;;;;10327945;28;20080;-67
2021/03/13 16:20:47;;;;;;;4.13;1.30;;;8.20;96.20;;;;;;10328043;28;20471;-67
2021/03/13 16:25:50;;;;;;;4.05;1.48;;;8.00;97.00;;;;;;10327336;28;20482;-67
2021/03/13 16:30:52;;;;;;;6.55;1.60;;;7.80;99.70;;;;;;10327431;28;20081;-67
2021/03/13 16:35:53;;;;;;;7.25;2.35;;;7.80;99.90;;;;;;10327509;28;20085;-67
2021/03/13 16:40:56;;;;;;;6.55;1.63;;;7.50;99.90;;;;;;10325584;28;20499;-67
2021/03/13 16:45:58;;;;;;;8.00;1.70;;;7.30;99.90;;;;;;10326607;28;20481;-67
2021/03/13 16:51:03;;;;;;;7.28;2.10;;;7.30;99.90;;;;;;10327092;28;20053;-67
2021/03/13 16:56:05;;;;;;;8.38;2.10;;;7.20;99.90;;;;;;10325574;28;20078;-67
2021/03/13 17:01:06;;;;;;;6.72;1.95;;;7.10;99.90;;;;;;10326035;28;20047;-67
2021/03/13 17:06:08;;;;;;;5.60;1.83;;;7.10;99.90;;;;;;10326717;28;20082;-66
2021/03/13 17:11:10;;;;;;;6.60;1.92;;;7.10;99.90;;;;;;10325597;28;20046;-66
2021/03/13 17:16:13;;;;;;;9.85;2.10;;;7.20;99.90;;;;;;10324360;28;20504;-66
2021/03/13 17:21:14;;;;;;;5.18;1.25;;;7.30;99.90;;;;;;10325881;28;20046;-66
2021/03/13 17:26:16;;;;;;;7.35;1.73;;;7.00;99.90;;;;;;10325217;28;20148;-66
2021/03/13 17:31:18;;;;;;;3.55;1.27;;;6.60;99.90;;;;;;10325256;28;20046;-66
2021/03/13 17:36:22;;;;;;;7.35;3.25;;;6.10;99.90;;;;;;10323860;28;20058;-66
2021/03/13 17:41:24;;;;;;;4.30;1.50;;;5.90;99.90;;;;;;10325546;28;20533;-66
2021/03/13 17:46:26;;;;;;;4.95;1.33;;;5.60;99.90;;;;;;10323555;28;20414;-66
2021/03/13 17:51:28;;;;;;;4.70;1.80;;;5.50;99.90;;;;;;10323533;28;20073;-66
2021/03/13 17:56:29;;;;;;;4.25;1.60;;;5.40;99.90;;;;;;10324637;28;20392;-66
2021/03/13 18:01:32;;;;;;;5.47;1.60;;;5.30;99.90;;;;;;10324248;28;20083;-65
2021/03/13 18:06:34;;;;;;;4.32;1.55;;;5.30;99.90;;;;;;10322641;28;20050;-65
2021/03/13 18:11:36;;;;;;;6.28;1.70;;;5.20;99.90;;;;;;10324424;28;20109;-66
2021/03/13 18:16:38;;;;;;;4.70;1.60;;;5.30;99.90;;;;;;10323489;28;20545;-66
2021/03/13 18:21:40;;;;;;;3.58;1.60;;;5.20;99.90;;;;;;10321821;28;20052;-66
2021/03/13 18:26:41;;;;;;;6.22;1.60;;;5.20;99.90;;;;;;10323437;28;20506;-66
2021/03/13 18:31:46;;;;;;;4.28;1.50;;;5.20;99.90;;;;;;10323125;28;20513;-66
2021/03/13 18:36:48;;;;;;;4.82;1.70;;;5.30;99.90;;;;;;10323032;28;20054;-66
2021/03/13 18:41:49;;;;;;;7.55;2.25;;;5.30;99.90;;;;;;10322464;28;20088;-66
2021/03/13 18:46:51;;;;;;;7.38;2.00;;;5.40;99.90;;;;;;10321283;28;20399;-66
2021/03/13 18:51:53;;;;;;;5.97;1.90;;;5.40;99.90;;;;;;10322585;28;20105;-66
2021/03/13 18:56:54;;;;;;;7.65;1.80;;;5.40;99.90;;;;;;10321106;28;20105;-66
2021/03/13 19:01:56;;;;;;;8.68;1.80;;;5.50;99.90;;;;;;10325002;28;20070;-66
2021/03/13 19:07:16;;;;;;;4.53;1.65;;;5.50;99.90;;;;;;10330359;28;20050;-66
2021/03/13 19:12:17;;;;;;;12.25;1.80;;;5.50;99.90;;;;;;10330085;28;20053;-66
2021/03/13 19:17:19;;;;;;;6.32;2.10;;;5.50;99.90;;;;;;10331101;28;20092;-66
2021/03/13 19:22:20;;;;;;;7.85;2.13;;;5.50;99.90;;;;;;10330497;28;20055;-66
2021/03/13 19:27:22;;;;;;;7.40;2.03;;;5.50;99.90;;;;;;10329734;28;20081;-66
2021/03/13 19:32:24;;;;;;;6.97;2.35;;;5.60;99.90;;;;;;10327470;28;20616;-71
2021/03/13 19:37:25;;;;;;;5.40;1.60;;;5.60;99.90;;;;;;10329235;28;20055;-71
2021/03/13 19:42:27;;;;;;;6.45;2.00;;;5.50;99.90;;;;;;10329646;28;20085;-70
2021/03/13 19:47:31;;;;;;;6.15;1.80;;;5.60;99.90;;;;;;10327319;28;20117;-71
2021/03/13 19:52:33;;;;;;;8.63;2.03;;;5.60;99.90;;;;;;10329267;28;20125;-71
2021/03/13 19:57:39;;;;;;;8.30;1.83;;;5.70;99.90;;;;;;10328585;28;20521;-71
2021/03/13 20:02:40;;;;;;;8.43;2.00;;;5.70;99.90;;;;;;10328306;28;20046;-71
2021/03/13 20:07:42;;;;;;;12.15;2.05;;;5.60;99.90;;;;;;10326635;28;20085;-71
2021/03/13 20:12:44;;;;;;;6.60;1.98;;;5.60;99.90;;;;;;10327653;28;20046;-71
2021/03/13 20:17:46;;;;;;;8.82;2.47;;;5.60;99.90;;;;;;10328245;28;20054;-71
2021/03/13 20:22:48;;;;;;;8.75;2.20;;;5.60;99.90;;;;;;10326944;28;20073;-71
2021/03/13 20:27:52;;;;;;;10.40;2.40;;;5.50;99.90;;;;;;10326974;28;20057;-71
2021/03/13 20:32:54;;;;;;;8.45;2.20;;;5.50;99.90;;;;;;10327690;28;20070;-71
2021/03/13 20:37:56;;;;;;;8.45;2.10;;;5.40;99.90;;;;;;10327616;28;20061;-71
2021/03/13 20:42:58;;;;;;;7.47;1.90;;;5.40;99.90;;;;;;10327510;28;20066;-71
2021/03/13 20:48:00;;;;;;;6.65;1.80;;;5.40;99.90;;;;;;10325961;28;20453;-71
2021/03/13 20:53:03;;;;;;;9.82;1.83;;;5.20;99.90;;;;;;10327309;28;20054;-71
2021/03/13 20:58:06;;;;;;;6.50;2.03;;;5.30;99.90;;;;;;10327662;28;20145;-70
2021/03/13 21:03:07;;;;;;;5.60;2.00;;;5.20;99.90;;;;;;10325343;28;20051;-71
2021/03/13 21:08:11;;;;;;;5.93;1.80;;;5.20;99.90;;;;;;10326521;28;20526;-70
2021/03/13 21:13:13;;;;;;;7.57;1.80;;;5.10;99.90;;;;;;10325645;28;20576;-70
2021/03/13 21:18:20;;;;;;;5.80;1.75;;;5.00;99.90;;;;;;10325963;28;20058;-71
2021/03/13 21:23:21;;;;;;;6.07;1.95;;;5.00;99.90;;;;;;10325628;28;20062;-71
2021/03/13 21:28:23;;;;;;;8.68;2.05;;;4.90;99.90;;;;;;10323786;28;20104;-71
2021/03/13 21:33:25;;;;;;;4.82;2.05;;;4.80;99.90;;;;;;10325335;28;20402;-71
2021/03/13 21:38:28;;;;;;;6.93;2.08;;;4.80;99.90;;;;;;10325658;28;20185;-70
2021/03/13 21:43:29;;;;;;;5.40;1.65;;;4.70;99.90;;;;;;10324246;28;20050;-71
2021/03/13 21:48:42;;;;;;;6.55;1.90;;;4.70;99.90;;;;;;10325021;28;20061;-71
2021/03/13 21:53:43;;;;;;;8.63;2.17;;;4.70;99.90;;;;;;10323739;28;20061;-71
2021/03/13 21:58:45;;;;;;;8.30;2.10;;;4.60;99.90;;;;;;10323956;28;20550;-71
2021/03/13 22:03:46;;;;;;;7.68;2.03;;;4.60;99.90;;;;;;10324518;28;20129;-71
2021/03/13 22:08:48;;;;;;;6.90;2.05;;;4.50;99.90;;;;;;10323695;28;20078;-70
2021/03/13 22:13:50;;;;;;;8.85;2.13;;;4.40;99.90;;;;;;10320792;28;20045;-70
2021/03/13 22:19:07;;;;;;;8.35;2.28;;;4.40;99.90;;;;;;10323724;28;20402;-69
2021/03/13 22:24:09;;;;;;;6.93;1.95;;;4.40;99.90;;;;;;10317509;28;20153;-70
2021/03/13 22:29:10;;;;;;;10.02;4.93;;;4.50;99.90;;;;;;10322247;28;20138;-70
2021/03/13 22:34:12;;;;;;;13.80;3.83;;;4.70;99.90;;;;;;10324165;28;20054;-70
2021/03/13 22:39:13;;;;;;;13.32;3.63;;;4.90;99.90;;;;;;10322594;28;20046;-70
2021/03/13 22:44:15;;;;;;;6.70;1.77;;;4.90;99.90;;;;;;10322956;28;20057;-70
2021/03/13 22:49:28;;;;;;;10.13;2.20;;;4.90;99.90;;;;;;10323303;28;20456;-70
2021/03/13 22:54:30;;;;;;;7.45;2.03;;;5.10;99.90;;;;;;10322013;28;20111;-70
2021/03/13 22:59:32;;;;;;;9.68;2.45;;;5.30;99.90;;;;;;10320384;28;20073;-70
2021/03/13 23:04:33;;;;;;;11.30;2.75;;;5.30;99.90;;;;;;10320701;28;20347;-70
2021/03/13 23:09:35;;;;;;;6.40;1.63;;;5.10;99.90;;;;;;10315918;28;20046;-70
2021/03/13 23:14:36;;;;;;;5.80;1.60;;;5.00;99.90;;;;;;10319014;28;20126;-70
2021/03/13 23:19:52;;;;;;;9.13;1.60;;;4.90;99.90;;;;;;10317410;28;20120;-70
2021/03/13 23:24:54;;;;;;;4.90;1.60;;;4.80;99.90;;;;;;10322167;28;20502;-70
2021/03/13 23:29:58;;;;;;;5.90;1.27;;;4.70;99.90;;;;;;10322180;28;20050;-70
2021/03/13 23:35:00;;;;;;;4.70;1.42;;;4.60;99.90;;;;;;10321458;28;20061;-70
2021/03/13 23:40:06;;;;;;;6.80;1.75;;;4.50;99.90;;;;;;10321245;28;20137;-70
2021/03/13 23:45:10;;;;;;;4.93;1.58;;;4.50;99.90;;;;;;10321051;28;20086;-70
2021/03/13 23:50:23;;;;;;;6.57;1.45;;;4.60;99.90;;;;;;10326391;28;20084;-70
2021/03/13 23:55:35;;;;;;;5.95;1.70;;;4.70;99.90;;;;;;10328770;28;20054;-69
